Time,TemperatureF,DewpointF,PressureIn,WindDirection,WindDirectionDegrees,WindSpeedMPH,WindSpeedGustMPH,Humidity,HourlyPrecipIn,Conditions,Clouds,dailyrainin,SoftwareType,DateUTC
2013-06-14 09:28:00,72.8,60.8,29.97,NW,308,0.0,1.0,66,0.00,,,0.01,Wunderground v.1.15,2013-06-14 13:28:00,
2013-06-14 09:29:00,72.9,60.4,29.97,West,269,1.0,1.0,65,0.00,,,0.01,Wunderground v.1.15,2013-06-14 13:29:00,
2013-06-14 09:33:00,73.1,61.1,29.97,West,278,0.0,2.0,66,0.00,,,0.01,Wunderground v.1.15,2013-06-14 13:33:00,
2013-06-14 09:34:00,73.1,61.1,29.97,West,278,0.0,2.0,66,0.00,,,0.01,Wunderground v.1.15,2013-06-14 13:34:00,
2013-06-14 09:39:00,73.8,60.0,29.97,SW,228,1.0,2.0,62,0.00,,,0.01,Wunderground v.1.15,2013-06-14 13:39:00,
2013-06-14 09:40:00,73.9,60.5,29.97,SW,228,0.0,2.0,63,0.00,,,0.01,Wunderground v.1.15,2013-06-14 13:40:00,
2013-06-14 09:44:00,74.1,61.6,29.97,ESE,120,1.0,3.0,65,0.00,,,0.01,Wunderground v.1.15,2013-06-14 13:44:00,
2013-06-14 09:45:00,74.2,61.7,29.97,East,89,1.0,3.0,65,0.00,,,0.01,Wunderground v.1.15,2013-06-14 13:45:00,
2013-06-14 09:49:00,74.2,60.3,29.97,SSE,148,1.0,3.0,62,0.00,,,0.01,Wunderground v.1.15,2013-06-14 13:49:00,
2013-06-14 09:50:00,74.2,60.3,29.97,SSE,148,0.0,3.0,62,0.00,,,0.01,Wunderground v.1.15,2013-06-14 13:50:00,
2013-06-14 09:54:00,73.9,60.1,29.97,ENE,67,0.0,3.0,62,0.00,,,0.01,Wunderground v.1.15,2013-06-14 13:54:00,
2013-06-14 09:55:00,73.9,60.1,29.97,ENE,68,1.0,3.0,62,0.00,,,0.01,Wunderground v.1.15,2013-06-14 13:55:00,
2013-06-14 09:59:00,73.7,59.4,29.97,East,98,2.0,3.0,61,0.00,,,0.01,Wunderground v.1.15,2013-06-14 13:59:00,
2013-06-14 10:00:00,73.7,59.4,29.97,ENE,70,2.0,3.0,61,0.00,,,0.01,Wunderground v.1.15,2013-06-14 14:00:00,
2013-06-14 10:01:00,73.7,59.4,29.97,ESE,117,2.0,3.0,61,0.00,,,0.01,Wunderground v.1.15,2013-06-14 14:01:00,
2013-06-14 10:04:00,73.8,59.0,29.97,East,90,2.0,3.0,60,0.00,,,0.01,Wunderground v.1.15,2013-06-14 14:04:00,
2013-06-14 10:05:00,73.8,59.0,29.97,South,188,2.0,3.0,60,0.00,,,0.01,Wunderground v.1.15,2013-06-14 14:05:00,
2013-06-14 10:06:00,73.9,59.1,29.97,SSE,153,1.0,3.0,60,0.00,,,0.01,Wunderground v.1.15,2013-06-14 14:06:00,
2013-06-14 10:09:00,74.5,59.2,29.97,SE,125,0.0,3.0,59,0.00,,,0.01,Wunderground v.1.15,2013-06-14 14:09:00,
2013-06-14 10:10:00,74.6,59.3,29.97,SSW,207,0.0,2.0,59,0.00,,,0.01,Wunderground v.1.15,2013-06-14 14:10:00,
2013-06-14 10:11:00,74.8,60.0,29.97,WSW,238,1.0,2.0,60,0.00,,,0.01,Wunderground v.1.15,2013-06-14 14:11:00,
2013-06-14 10:14:00,75.4,59.1,29.97,South,181,1.0,2.0,57,0.00,,,0.01,Wunderground v.1.15,2013-06-14 14:14:00,
2013-06-14 10:15:00,75.5,59.2,29.97,South,181,0.0,2.0,57,0.00,,,0.01,Wunderground v.1.15,2013-06-14 14:15:00,
2013-06-14 10:16:00,75.6,58.8,29.97,SSE,148,2.0,2.0,56,0.00,,,0.01,Wunderground v.1.15,2013-06-14 14:16:00,
2013-06-14 10:20:00,76.2,58.9,29.97,South,174,1.0,1.0,55,0.00,,,0.01,Wunderground v.1.15,2013-06-14 14:20:00,
2013-06-14 10:21:00,76.4,59.0,29.97,South,190,1.0,1.0,55,0.00,,,0.01,Wunderground v.1.15,2013-06-14 14:21:00,
2013-06-14 10:25:00,77.1,61.2,29.97,NE,50,2.0,3.0,58,0.00,,,0.01,Wunderground v.1.15,2013-06-14 14:25:00,
2013-06-14 10:26:00,77.1,62.1,29.97,NE,39,2.0,3.0,60,0.00,,,0.01,Wunderground v.1.15,2013-06-14 14:26:00,
2013-06-14 10:30:00,76.5,61.6,29.97,NNW,343,2.0,3.0,60,0.00,,,0.01,Wunderground v.1.15,2013-06-14 14:30:00,
2013-06-14 10:31:00,76.3,61.4,29.97,North,11,3.0,3.0,60,0.00,,,0.01,Wunderground v.1.15,2013-06-14 14:31:00,
2013-06-14 10:35:00,75.9,62.4,29.97,NNW,343,2.0,3.0,63,0.00,,,0.01,Wunderground v.1.15,2013-06-14 14:35:00,
2013-06-14 10:36:00,75.9,62.4,29.97,NE,34,1.0,3.0,63,0.00,,,0.01,Wunderground v.1.15,2013-06-14 14:36:00,
2013-06-14 10:37:00,75.8,62.3,29.97,North,351,2.0,3.0,63,0.00,,,0.01,Wunderground v.1.15,2013-06-14 14:37:00,
2013-06-14 10:40:00,76.0,63.4,29.97,NW,315,0.0,2.0,65,0.00,,,0.01,Wunderground v.1.15,2013-06-14 14:40:00,
2013-06-14 10:41:00,76.1,63.5,29.97,NW,322,1.0,2.0,65,0.00,,,0.01,Wunderground v.1.15,2013-06-14 14:41:00,
2013-06-14 10:42:00,76.2,62.2,29.97,NNW,327,1.0,2.0,62,0.00,,,0.01,Wunderground v.1.15,2013-06-14 14:42:00,
2013-06-14 10:45:00,76.2,61.8,29.97,NNW,328,0.0,2.0,61,0.00,,,0.01,Wunderground v.1.15,2013-06-14 14:45:00,
2013-06-14 10:46:00,76.3,62.8,29.97,NNW,328,0.0,2.0,63,0.00,,,0.01,Wunderground v.1.15,2013-06-14 14:46:00,
2013-06-14 10:47:00,76.3,62.8,29.97,NNE,20,0.0,2.0,63,0.00,,,0.01,Wunderground v.1.15,2013-06-14 14:47:00,
2013-06-14 10:51:00,76.8,61.9,29.97,NE,49,3.0,3.0,60,0.00,,,0.01,Wunderground v.1.15,2013-06-14 14:51:00,
2013-06-14 10:52:00,76.7,62.7,29.97,NNW,340,3.0,4.0,62,0.00,,,0.01,Wunderground v.1.15,2013-06-14 14:52:00,
2013-06-14 10:53:00,76.7,61.8,29.97,NNW,342,1.0,4.0,60,0.00,,,0.01,Wunderground v.1.15,2013-06-14 14:53:00,
2013-06-14 10:56:00,76.5,62.0,29.97,NE,36,2.0,4.0,61,0.00,,,0.01,Wunderground v.1.15,2013-06-14 14:56:00,
2013-06-14 10:57:00,76.5,62.5,29.97,NE,41,2.0,4.0,62,0.00,,,0.01,Wunderground v.1.15,2013-06-14 14:57:00,
2013-06-14 10:58:00,76.4,62.0,29.97,NE,41,3.0,4.0,61,0.00,,,0.01,Wunderground v.1.15,2013-06-14 14:58:00,
2013-06-14 11:01:00,76.2,62.2,29.97,ENE,58,2.0,3.0,62,0.00,,,0.01,Wunderground v.1.15,2013-06-14 15:01:00,
2013-06-14 11:02:00,76.2,62.2,29.97,NE,56,1.0,3.0,62,0.00,,,0.01,Wunderground v.1.15,2013-06-14 15:02:00,
2013-06-14 11:03:00,76.2,62.2,29.97,NE,47,2.0,3.0,62,0.00,,,0.01,Wunderground v.1.15,2013-06-14 15:03:00,
2013-06-14 11:07:00,76.4,63.3,29.97,NNE,13,2.0,3.0,64,0.00,,,0.01,Wunderground v.1.15,2013-06-14 15:07:00,
2013-06-14 11:08:00,76.5,62.0,29.98,NNE,27,1.0,3.0,61,0.00,,,0.01,Wunderground v.1.15,2013-06-14 15:08:00,
2013-06-14 11:12:00,76.5,61.6,29.98,NE,56,0.0,2.0,60,0.00,,,0.01,Wunderground v.1.15,2013-06-14 15:12:00,
2013-06-14 11:13:00,76.5,62.0,29.98,NE,56,0.0,2.0,61,0.00,,,0.01,Wunderground v.1.15,2013-06-14 15:13:00,
2013-06-14 11:17:00,76.8,60.9,29.98,SE,140,1.0,4.0,58,0.00,,,0.01,Wunderground v.1.15,2013-06-14 15:17:00,
2013-06-14 11:18:00,76.8,60.9,29.98,East,98,2.0,4.0,58,0.00,,,0.01,Wunderground v.1.15,2013-06-14 15:18:00,
2013-06-14 11:22:00,77.1,62.1,29.98,SSE,155,1.0,2.0,60,0.00,,,0.01,Wunderground v.1.15,2013-06-14 15:22:00,
2013-06-14 11:23:00,77.3,62.8,29.98,SE,145,1.0,2.0,61,0.00,,,0.01,Wunderground v.1.15,2013-06-14 15:23:00,
2013-06-14 11:27:00,78.2,62.7,29.98,SSE,152,1.0,3.0,59,0.00,,,0.01,Wunderground v.1.15,2013-06-14 15:27:00,
2013-06-14 11:28:00,78.3,60.8,29.98,SSW,210,2.0,4.0,55,0.00,,,0.01,Wunderground v.1.15,2013-06-14 15:28:00,
2013-06-14 11:29:00,78.4,61.4,29.98,South,187,3.0,4.0,56,0.00,,,0.01,Wunderground v.1.15,2013-06-14 15:29:00,
2013-06-14 11:32:00,78.6,61.1,29.99,SSW,202,1.0,3.0,55,0.00,,,0.01,Wunderground v.1.15,2013-06-14 15:32:00,
2013-06-14 11:33:00,78.7,61.7,29.99,SSW,210,1.0,3.0,56,0.00,,,0.01,Wunderground v.1.15,2013-06-14 15:33:00,
2013-06-14 11:34:00,78.7,61.7,29.99,SSW,210,1.0,3.0,56,0.00,,,0.01,Wunderground v.1.15,2013-06-14 15:34:00,
2013-06-14 11:37:00,79.1,62.6,29.98,WSW,258,0.0,3.0,57,0.00,,,0.01,Wunderground v.1.15,2013-06-14 15:37:00,
2013-06-14 11:38:00,79.2,62.7,29.98,WSW,238,0.0,3.0,57,0.00,,,0.01,Wunderground v.1.15,2013-06-14 15:38:00,
2013-06-14 11:39:00,79.3,62.2,29.98,NE,40,3.0,4.0,56,0.00,,,0.01,Wunderground v.1.15,2013-06-14 15:39:00,
2013-06-14 11:42:00,79.2,62.7,29.98,North,350,2.0,4.0,57,0.00,,,0.01,Wunderground v.1.15,2013-06-14 15:42:00,
2013-06-14 11:43:00,79.1,62.6,29.98,NNW,327,4.0,5.0,57,0.00,,,0.01,Wunderground v.1.15,2013-06-14 15:43:00,
2013-06-14 11:44:00,78.9,61.9,29.98,North,360,2.0,5.0,56,0.00,,,0.01,Wunderground v.1.15,2013-06-14 15:44:00,
2013-06-14 11:47:00,78.4,61.9,29.98,NNW,342,0.0,5.0,57,0.00,,,0.01,Wunderground v.1.15,2013-06-14 15:47:00,
2013-06-14 11:48:00,78.4,61.9,29.98,NNW,343,0.0,5.0,57,0.00,,,0.01,Wunderground v.1.15,2013-06-14 15:48:00,
2013-06-14 11:49:00,78.4,62.4,29.98,NW,326,2.0,5.0,58,0.00,,,0.01,Wunderground v.1.15,2013-06-14 15:49:00,
2013-06-14 11:52:00,78.7,61.7,29.98,West,262,1.0,2.0,56,0.00,,,0.01,Wunderground v.1.15,2013-06-14 15:52:00,
2013-06-14 11:53:00,78.8,62.8,29.98,WSW,253,1.0,2.0,58,0.00,,,0.01,Wunderground v.1.15,2013-06-14 15:53:00,
2013-06-14 11:54:00,78.9,62.9,29.98,ESE,113,1.0,2.0,58,0.00,,,0.01,Wunderground v.1.15,2013-06-14 15:54:00,
2013-06-14 11:55:00,79.0,63.0,29.98,SE,134,1.0,3.0,58,0.00,,,0.01,Wunderground v.1.15,2013-06-14 15:55:00,
2013-06-14 11:58:00,79.4,63.3,29.98,South,169,1.0,3.0,58,0.00,,,0.01,Wunderground v.1.15,2013-06-14 15:58:00,
2013-06-14 11:59:00,79.5,62.9,29.98,East,80,0.0,3.0,57,0.00,,,0.01,Wunderground v.1.15,2013-06-14 15:59:00,
2013-06-14 12:00:00,79.6,63.0,29.98,East,97,1.0,1.0,57,0.00,,,0.01,Wunderground v.1.15,2013-06-14 16:00:00,
2013-06-14 12:03:00,79.6,64.5,29.98,NE,42,3.0,5.0,60,0.00,,,0.01,Wunderground v.1.15,2013-06-14 16:03:00,
2013-06-14 12:04:00,79.5,62.9,29.98,NNW,346,3.0,5.0,57,0.00,,,0.01,Wunderground v.1.15,2013-06-14 16:04:00,
2013-06-14 12:05:00,79.5,61.9,29.98,NNE,20,1.0,5.0,55,0.00,,,0.01,Wunderground v.1.15,2013-06-14 16:05:00,
2013-06-14 12:08:00,79.4,62.3,29.98,SE,133,1.0,5.0,56,0.00,,,0.01,Wunderground v.1.15,2013-06-14 16:08:00,
2013-06-14 12:09:00,79.6,61.5,29.98,NNE,12,2.0,5.0,54,0.00,,,0.01,Wunderground v.1.15,2013-06-14 16:09:00,
2013-06-14 12:11:00,79.8,62.2,29.98,SE,138,2.0,4.0,55,0.00,,,0.01,Wunderground v.1.15,2013-06-14 16:11:00,
2013-06-14 12:13:00,80.0,61.3,29.98,SE,142,2.0,4.0,53,0.00,,,0.01,Wunderground v.1.15,2013-06-14 16:13:00,
2013-06-14 12:14:00,80.0,59.7,29.98,ESE,113,2.0,7.0,50,0.00,,,0.01,Wunderground v.1.15,2013-06-14 16:14:00,
2013-06-14 12:16:00,79.8,60.1,29.98,East,79,2.0,7.0,51,0.00,,,0.01,Wunderground v.1.15,2013-06-14 16:16:00,
2013-06-14 12:18:00,79.6,61.0,29.98,ENE,72,1.0,7.0,53,0.00,,,0.01,Wunderground v.1.15,2013-06-14 16:18:00,
2013-06-14 12:19:00,79.7,61.6,29.97,ESE,107,1.0,7.0,54,0.00,,,0.01,Wunderground v.1.15,2013-06-14 16:19:00,
2013-06-14 12:20:00,79.7,61.6,29.97,ESE,120,3.0,4.0,54,0.00,,,0.01,Wunderground v.1.15,2013-06-14 16:20:00,
2013-06-14 12:21:00,79.7,61.1,29.97,ESE,110,3.0,5.0,53,0.00,,,0.01,Wunderground v.1.15,2013-06-14 16:21:00,
2013-06-14 12:22:00,79.6,61.0,29.97,ESE,123,0.0,5.0,53,0.00,,,0.01,Wunderground v.1.15,2013-06-14 16:22:00,
2013-06-14 12:23:00,79.6,62.0,29.97,ENE,67,1.0,5.0,55,0.00,,,0.01,Wunderground v.1.15,2013-06-14 16:23:00,
2013-06-14 12:25:00,79.7,62.6,29.97,ESE,114,0.0,5.0,56,0.00,,,0.01,Wunderground v.1.15,2013-06-14 16:25:00,
2013-06-14 12:26:00,79.9,61.2,29.97,ESE,120,2.0,5.0,53,0.00,,,0.01,Wunderground v.1.15,2013-06-14 16:26:00,
2013-06-14 12:27:00,79.9,61.2,29.97,ESE,120,3.0,5.0,53,0.00,,,0.01,Wunderground v.1.15,2013-06-14 16:27:00,
2013-06-14 12:28:00,80.0,60.2,29.97,ESE,111,0.0,5.0,51,0.00,,,0.01,Wunderground v.1.15,2013-06-14 16:28:00,
2013-06-14 12:30:00,80.3,61.6,29.97,SSW,201,1.0,2.0,53,0.00,,,0.01,Wunderground v.1.15,2013-06-14 16:30:00,
2013-06-14 12:32:00,80.6,63.5,29.97,WSW,239,1.0,2.0,56,0.00,,,0.01,Wunderground v.1.15,2013-06-14 16:32:00,
2013-06-14 12:34:00,81.0,62.3,29.97,NNE,23,1.0,2.0,53,0.00,,,0.01,Wunderground v.1.15,2013-06-14 16:34:00,
2013-06-14 12:35:00,81.1,61.3,29.97,South,176,2.0,3.0,51,0.00,,,0.01,Wunderground v.1.15,2013-06-14 16:35:00,
2013-06-14 12:37:00,81.2,60.2,29.97,SSW,210,1.0,3.0,49,0.00,,,0.01,Wunderground v.1.15,2013-06-14 16:37:00,
2013-06-14 12:39:00,81.4,61.0,29.97,WSW,250,1.0,3.0,50,0.00,,,0.01,Wunderground v.1.15,2013-06-14 16:39:00,
2013-06-14 12:40:00,81.5,61.6,29.97,SSE,150,2.0,3.0,51,0.00,,,0.01,Wunderground v.1.15,2013-06-14 16:40:00,
2013-06-14 12:41:00,81.5,60.5,29.97,SSE,150,0.0,3.0,49,0.00,,,0.01,Wunderground v.1.15,2013-06-14 16:41:00,
2013-06-14 12:42:00,81.6,61.2,29.97,WSW,250,1.0,3.0,50,0.00,,,0.01,Wunderground v.1.15,2013-06-14 16:42:00,
2013-06-14 12:43:00,81.8,61.3,29.97,South,191,2.0,4.0,50,0.00,,,0.01,Wunderground v.1.15,2013-06-14 16:43:00,
2013-06-14 12:44:00,81.9,60.9,29.97,SSE,163,3.0,4.0,49,0.00,,,0.01,Wunderground v.1.15,2013-06-14 16:44:00,
2013-06-14 12:45:00,82.1,61.6,29.97,South,183,3.0,4.0,50,0.00,,,0.01,Wunderground v.1.15,2013-06-14 16:45:00,
2013-06-14 12:46:00,82.1,59.3,29.97,SE,139,4.0,5.0,46,0.00,,,0.01,Wunderground v.1.15,2013-06-14 16:46:00,
2013-06-14 12:47:00,82.1,59.3,29.97,SSE,156,4.0,5.0,46,0.00,,,0.01,Wunderground v.1.15,2013-06-14 16:47:00,
2013-06-14 12:48:00,82.1,59.9,29.97,SSW,203,1.0,5.0,47,0.00,,,0.01,Wunderground v.1.15,2013-06-14 16:48:00,
2013-06-14 12:49:00,82.1,59.9,29.97,West,278,3.0,5.0,47,0.00,,,0.01,Wunderground v.1.15,2013-06-14 16:49:00,
2013-06-14 12:50:00,82.0,60.4,29.97,SSW,210,2.0,3.0,48,0.00,,,0.01,Wunderground v.1.15,2013-06-14 16:50:00,
2013-06-14 12:51:00,82.0,61.0,29.97,SSE,163,2.0,3.0,49,0.00,,,0.01,Wunderground v.1.15,2013-06-14 16:51:00,
2013-06-14 12:52:00,82.1,61.6,29.97,NE,44,2.0,3.0,50,0.00,,,0.01,Wunderground v.1.15,2013-06-14 16:52:00,
2013-06-14 12:53:00,82.1,62.2,29.97,WSW,249,1.0,6.0,51,0.00,,,0.01,Wunderground v.1.15,2013-06-14 16:53:00,
2013-06-14 12:54:00,82.1,62.2,29.97,SSE,150,1.0,6.0,51,0.00,,,0.01,Wunderground v.1.15,2013-06-14 16:54:00,
2013-06-14 12:55:00,82.1,60.5,29.97,NNE,20,1.0,6.0,48,0.00,,,0.01,Wunderground v.1.15,2013-06-14 16:55:00,
2013-06-14 12:56:00,82.2,62.8,29.97,NNE,26,1.0,6.0,52,0.00,,,0.01,Wunderground v.1.15,2013-06-14 16:56:00,
2013-06-14 12:57:00,82.2,61.1,29.97,NNW,342,2.0,6.0,49,0.00,,,0.01,Wunderground v.1.15,2013-06-14 16:57:00,
2013-06-14 12:59:00,82.3,61.2,29.97,North,9,4.0,6.0,49,0.00,,,0.01,Wunderground v.1.15,2013-06-14 16:59:00,
2013-06-14 13:00:00,82.3,60.1,29.97,SSE,158,4.0,8.0,47,0.00,,,0.01,Wunderground v.1.15,2013-06-14 17:00:00,
2013-06-14 13:02:00,82.3,61.2,29.97,SE,128,2.0,8.0,49,0.00,,,0.01,Wunderground v.1.15,2013-06-14 17:02:00,
2013-06-14 13:04:00,82.2,60.6,29.97,WSW,248,1.0,8.0,48,0.00,,,0.01,Wunderground v.1.15,2013-06-14 17:04:00,
2013-06-14 13:05:00,82.3,60.1,29.97,ESE,102,0.0,8.0,47,0.00,,,0.01,Wunderground v.1.15,2013-06-14 17:05:00,
2013-06-14 13:07:00,82.3,61.2,29.97,SW,224,3.0,8.0,49,0.00,,,0.01,Wunderground v.1.15,2013-06-14 17:07:00,
2013-06-14 13:09:00,82.6,63.7,29.97,North,11,3.0,8.0,53,0.00,,,0.01,Wunderground v.1.15,2013-06-14 17:09:00,
2013-06-14 13:11:00,82.6,61.5,29.97,SW,215,3.0,3.0,49,0.00,,,0.01,Wunderground v.1.15,2013-06-14 17:11:00,
2013-06-14 13:12:00,82.5,62.0,29.97,WSW,242,2.0,4.0,50,0.00,,,0.01,Wunderground v.1.15,2013-06-14 17:12:00,
2013-06-14 13:14:00,82.4,60.7,29.97,SW,233,5.0,5.0,48,0.00,,,0.01,Wunderground v.1.15,2013-06-14 17:14:00,
2013-06-14 13:15:00,82.4,60.1,29.97,ESE,113,1.0,5.0,47,0.00,,,0.01,Wunderground v.1.15,2013-06-14 17:15:00,
2013-06-14 13:16:00,82.4,60.1,29.97,SSE,148,1.0,5.0,47,0.00,,,0.01,Wunderground v.1.15,2013-06-14 17:16:00,
2013-06-14 13:17:00,82.4,60.1,29.97,SW,221,1.0,5.0,47,0.00,,,0.01,Wunderground v.1.15,2013-06-14 17:17:00,
2013-06-14 13:19:00,82.6,60.9,29.97,West,264,0.0,5.0,48,0.00,,,0.01,Wunderground v.1.15,2013-06-14 17:19:00,
2013-06-14 13:20:00,82.6,61.5,29.97,SW,229,3.0,3.0,49,0.00,,,0.01,Wunderground v.1.15,2013-06-14 17:20:00,
2013-06-14 13:21:00,82.5,60.2,29.97,SW,233,3.0,5.0,47,0.00,,,0.01,Wunderground v.1.15,2013-06-14 17:21:00,
2013-06-14 13:22:00,82.5,60.8,29.97,SW,232,4.0,5.0,48,0.00,,,0.01,Wunderground v.1.15,2013-06-14 17:22:00,
2013-06-14 13:25:00,82.4,60.1,29.98,SSW,212,2.0,5.0,47,0.00,,,0.01,Wunderground v.1.15,2013-06-14 17:25:00,
2013-06-14 13:27:00,82.5,63.1,29.97,WSW,258,2.0,5.0,52,0.00,,,0.01,Wunderground v.1.15,2013-06-14 17:27:00,
2013-06-14 13:28:00,82.6,62.1,29.98,NW,315,1.0,5.0,50,0.00,,,0.01,Wunderground v.1.15,2013-06-14 17:28:00,
2013-06-14 13:30:00,82.7,61.6,29.97,NW,308,3.0,3.0,49,0.00,,,0.01,Wunderground v.1.15,2013-06-14 17:30:00,
2013-06-14 13:31:00,82.6,60.3,29.97,NNE,32,4.0,6.0,47,0.00,,,0.01,Wunderground v.1.15,2013-06-14 17:31:00,
2013-06-14 13:32:00,82.6,60.3,29.97,West,263,1.0,6.0,47,0.00,,,0.01,Wunderground v.1.15,2013-06-14 17:32:00,
2013-06-14 13:33:00,82.7,63.8,29.98,ENE,77,1.0,6.0,53,0.00,,,0.01,Wunderground v.1.15,2013-06-14 17:33:00,
2013-06-14 13:35:00,82.9,62.9,29.97,SW,221,3.0,6.0,51,0.00,,,0.01,Wunderground v.1.15,2013-06-14 17:35:00,
2013-06-14 13:36:00,83.0,61.3,29.97,West,269,2.0,6.0,48,0.00,,,0.01,Wunderground v.1.15,2013-06-14 17:36:00,
2013-06-14 13:37:00,83.1,63.7,29.97,South,174,3.0,6.0,52,0.00,,,0.01,Wunderground v.1.15,2013-06-14 17:37:00,
2013-06-14 13:38:00,83.2,63.7,29.97,SE,143,2.0,6.0,52,0.00,,,0.01,Wunderground v.1.15,2013-06-14 17:38:00,
2013-06-14 13:40:00,83.5,61.7,29.98,WSW,253,3.0,5.0,48,0.00,,,0.01,Wunderground v.1.15,2013-06-14 17:40:00,
2013-06-14 13:41:00,83.5,61.7,29.98,WSW,243,6.0,9.0,48,0.00,,,0.01,Wunderground v.1.15,2013-06-14 17:41:00,
2013-06-14 13:43:00,83.2,59.6,29.98,SSW,204,1.0,9.0,45,0.00,,,0.01,Wunderground v.1.15,2013-06-14 17:43:00,
2013-06-14 13:45:00,83.0,61.3,29.97,SE,146,1.0,9.0,48,0.00,,,0.01,Wunderground v.1.15,2013-06-14 17:45:00,
2013-06-14 13:46:00,83.1,61.4,29.97,South,169,1.0,9.0,48,0.00,,,0.01,Wunderground v.1.15,2013-06-14 17:46:00,
2013-06-14 13:48:00,83.3,59.1,29.97,SSW,210,2.0,9.0,44,0.00,,,0.01,Wunderground v.1.15,2013-06-14 17:48:00,
2013-06-14 13:49:00,83.4,59.8,29.97,SSE,162,1.0,9.0,45,0.00,,,0.01,Wunderground v.1.15,2013-06-14 17:49:00,
2013-06-14 13:50:00,83.5,59.3,29.97,South,191,3.0,4.0,44,0.00,,,0.01,Wunderground v.1.15,2013-06-14 17:50:00,
2013-06-14 13:51:00,83.5,59.3,29.97,South,172,2.0,4.0,44,0.00,,,0.01,Wunderground v.1.15,2013-06-14 17:51:00,
2013-06-14 13:53:00,83.5,60.5,29.97,East,88,3.0,6.0,46,0.00,,,0.01,Wunderground v.1.15,2013-06-14 17:53:00,
2013-06-14 13:54:00,83.5,61.7,29.97,SW,215,1.0,6.0,48,0.00,,,0.01,Wunderground v.1.15,2013-06-14 17:54:00,
2013-06-14 13:56:00,83.6,60.6,29.97,NNW,348,2.0,6.0,46,0.00,,,0.01,Wunderground v.1.15,2013-06-14 17:56:00,
2013-06-14 13:58:00,83.7,61.9,29.97,ESE,106,2.0,6.0,48,0.00,,,0.01,Wunderground v.1.15,2013-06-14 17:58:00,
2013-06-14 13:59:00,83.7,61.9,29.97,East,82,3.0,6.0,48,0.00,,,0.01,Wunderground v.1.15,2013-06-14 17:59:00,
2013-06-14 14:01:00,83.8,62.0,29.97,South,191,2.0,4.0,48,0.00,,,0.01,Wunderground v.1.15,2013-06-14 18:01:00,
2013-06-14 14:03:00,83.9,61.5,29.97,NNE,30,2.0,4.0,47,0.00,,,0.01,Wunderground v.1.15,2013-06-14 18:03:00,
2013-06-14 14:04:00,83.9,61.5,29.97,North,360,2.0,4.0,47,0.00,,,0.01,Wunderground v.1.15,2013-06-14 18:04:00,
2013-06-14 14:06:00,84.0,59.1,29.97,NNE,24,2.0,4.0,43,0.00,,,0.01,Wunderground v.1.15,2013-06-14 18:06:00,
2013-06-14 14:07:00,83.9,59.7,29.97,NNW,330,1.0,5.0,44,0.00,,,0.01,Wunderground v.1.15,2013-06-14 18:07:00,
2013-06-14 14:08:00,83.9,61.5,29.97,ENE,74,2.0,7.0,47,0.00,,,0.01,Wunderground v.1.15,2013-06-14 18:08:00,
2013-06-14 14:09:00,83.9,61.5,29.97,WNW,284,1.0,7.0,47,0.00,,,0.01,Wunderground v.1.15,2013-06-14 18:09:00,
2013-06-14 14:11:00,84.0,64.5,29.97,West,259,4.0,6.0,52,0.00,,,0.01,Wunderground v.1.15,2013-06-14 18:11:00,
2013-06-14 14:12:00,84.1,59.2,29.97,SSW,210,2.0,6.0,43,0.00,,,0.01,Wunderground v.1.15,2013-06-14 18:12:00,
2013-06-14 14:13:00,84.1,59.2,29.97,SW,215,1.0,6.0,43,0.00,,,0.01,Wunderground v.1.15,2013-06-14 18:13:00,
2013-06-14 14:14:00,84.1,58.5,29.97,SSW,212,0.0,6.0,42,0.00,,,0.01,Wunderground v.1.15,2013-06-14 18:14:00,
2013-06-14 14:16:00,84.4,59.5,29.97,WSW,240,2.0,6.0,43,0.00,,,0.01,Wunderground v.1.15,2013-06-14 18:16:00,
2013-06-14 14:17:00,84.5,58.9,29.97,SW,235,2.0,6.0,42,0.00,,,0.01,Wunderground v.1.15,2013-06-14 18:17:00,
2013-06-14 14:18:00,84.5,58.2,29.96,ESE,112,2.0,6.0,41,0.00,,,0.01,Wunderground v.1.15,2013-06-14 18:18:00,
2013-06-14 14:19:00,84.5,60.2,29.96,North,11,3.0,6.0,44,0.00,,,0.01,Wunderground v.1.15,2013-06-14 18:19:00,
2013-06-14 14:21:00,84.6,60.9,29.96,WSW,253,5.0,13.0,45,0.00,,,0.01,Wunderground v.1.15,2013-06-14 18:21:00,
2013-06-14 14:22:00,84.6,59.6,29.97,South,184,8.0,13.0,43,0.00,,,0.01,Wunderground v.1.15,2013-06-14 18:22:00,
2013-06-14 14:24:00,84.5,58.2,29.96,SSW,207,6.0,13.0,41,0.00,,,0.01,Wunderground v.1.15,2013-06-14 18:24:00,
2013-06-14 14:26:00,84.4,60.7,29.97,West,263,1.0,13.0,45,0.00,,,0.01,Wunderground v.1.15,2013-06-14 18:26:00,
2013-06-14 14:28:00,84.4,58.8,29.96,SW,229,6.0,13.0,42,0.00,,,0.01,Wunderground v.1.15,2013-06-14 18:28:00,
2013-06-14 14:29:00,84.4,58.8,29.96,SSW,210,0.0,13.0,42,0.00,,,0.01,Wunderground v.1.15,2013-06-14 18:29:00,
2013-06-14 14:30:00,84.4,59.5,29.96,WSW,253,1.0,13.0,43,0.00,,,0.01,Wunderground v.1.15,2013-06-14 18:30:00,
2013-06-14 14:32:00,84.0,57.8,29.97,SW,235,5.0,9.0,41,0.00,,,0.01,Wunderground v.1.15,2013-06-14 18:32:00,
2013-06-14 14:33:00,83.7,58.2,29.96,WSW,249,1.0,9.0,42,0.00,,,0.01,Wunderground v.1.15,2013-06-14 18:33:00,
2013-06-14 14:34:00,83.5,57.3,29.97,West,278,2.0,9.0,41,0.00,,,0.01,Wunderground v.1.15,2013-06-14 18:34:00,
2013-06-14 14:35:00,83.4,57.2,29.97,SSE,166,2.0,9.0,41,0.00,,,0.01,Wunderground v.1.15,2013-06-14 18:35:00,
2013-06-14 14:38:00,82.9,56.8,29.96,SW,228,2.0,10.0,41,0.00,,,0.01,Wunderground v.1.15,2013-06-14 18:38:00,
2013-06-14 14:39:00,82.9,58.7,29.96,SSW,200,2.0,10.0,44,0.00,,,0.01,Wunderground v.1.15,2013-06-14 18:39:00,
2013-06-14 14:40:00,83.0,58.8,29.96,SSW,212,2.0,4.0,44,0.00,,,0.01,Wunderground v.1.15,2013-06-14 18:40:00,
2013-06-14 14:43:00,83.0,58.8,29.96,SSE,163,4.0,6.0,44,0.00,,,0.01,Wunderground v.1.15,2013-06-14 18:43:00,
2013-06-14 14:44:00,83.0,58.8,29.96,SSE,163,4.0,6.0,44,0.00,,,0.01,Wunderground v.1.15,2013-06-14 18:44:00,
2013-06-14 14:45:00,82.9,57.5,29.96,SSW,212,3.0,8.0,42,0.00,,,0.01,Wunderground v.1.15,2013-06-14 18:45:00,
2013-06-14 14:49:00,82.9,58.7,29.96,SE,128,7.0,11.0,44,0.00,,,0.01,Wunderground v.1.15,2013-06-14 18:49:00,
2013-06-14 14:50:00,83.0,56.9,29.96,SSE,148,6.0,6.0,41,0.00,,,0.01,Wunderground v.1.15,2013-06-14 18:50:00,
2013-06-14 14:54:00,83.4,59.8,29.96,WSW,255,2.0,7.0,45,0.00,,,0.01,Wunderground v.1.15,2013-06-14 18:54:00,
2013-06-14 14:55:00,83.5,59.9,29.96,WSW,246,3.0,7.0,45,0.00,,,0.01,Wunderground v.1.15,2013-06-14 18:55:00,
2013-06-14 14:56:00,83.6,57.4,29.96,WSW,246,8.0,14.0,41,0.00,,,0.01,Wunderground v.1.15,2013-06-14 18:56:00,
2013-06-14 14:59:00,83.5,57.3,29.96,WSW,245,5.0,14.0,41,0.00,,,0.01,Wunderground v.1.15,2013-06-14 18:59:00,
2013-06-14 15:00:00,83.4,57.2,29.96,SSE,153,2.0,5.0,41,0.00,,,0.01,Wunderground v.1.15,2013-06-14 19:00:00,
2013-06-14 15:01:00,83.4,57.9,29.96,SE,129,3.0,5.0,42,0.00,,,0.01,Wunderground v.1.15,2013-06-14 19:01:00,
2013-06-14 15:04:00,83.7,58.8,29.96,WSW,243,1.0,9.0,43,0.00,,,0.01,Wunderground v.1.15,2013-06-14 19:04:00,
2013-06-14 15:05:00,83.8,58.9,29.96,South,191,3.0,9.0,43,0.00,,,0.01,Wunderground v.1.15,2013-06-14 19:05:00,
2013-06-14 15:06:00,83.9,58.3,29.96,WSW,252,5.0,10.0,42,0.00,,,0.01,Wunderground v.1.15,2013-06-14 19:06:00,
2013-06-14 15:09:00,84.3,61.3,29.96,East,96,1.0,10.0,46,0.00,,,0.01,Wunderground v.1.15,2013-06-14 19:09:00,
2013-06-14 15:10:00,84.4,61.4,29.96,SE,143,1.0,4.0,46,0.00,,,0.01,Wunderground v.1.15,2013-06-14 19:10:00,
2013-06-14 15:11:00,84.5,59.5,29.96,WSW,248,6.0,6.0,43,0.00,,,0.01,Wunderground v.1.15,2013-06-14 19:11:00,
2013-06-14 15:14:00,84.4,57.4,29.96,WSW,256,8.0,9.0,40,0.00,,,0.01,Wunderground v.1.15,2013-06-14 19:14:00,
2013-06-14 15:15:00,84.4,57.4,29.96,South,181,6.0,9.0,40,0.00,,,0.01,Wunderground v.1.15,2013-06-14 19:15:00,
2013-06-14 15:16:00,84.5,57.5,29.96,SW,215,6.0,9.0,40,0.00,,,0.01,Wunderground v.1.15,2013-06-14 19:16:00,
2013-06-14 15:19:00,84.8,59.8,29.96,SE,126,4.0,9.0,43,0.00,,,0.01,Wunderground v.1.15,2013-06-14 19:19:00,
2013-06-14 15:20:00,84.9,59.9,29.96,SW,215,2.0,6.0,43,0.00,,,0.01,Wunderground v.1.15,2013-06-14 19:20:00,
2013-06-14 15:21:00,85.0,60.0,29.96,SSE,165,4.0,6.0,43,0.00,,,0.01,Wunderground v.1.15,2013-06-14 19:21:00,
2013-06-14 15:22:00,85.1,58.8,29.96,WSW,238,1.0,7.0,41,0.00,,,0.01,Wunderground v.1.15,2013-06-14 19:22:00,
2013-06-14 15:25:00,85.5,57.0,29.96,West,267,2.0,7.0,38,0.00,,,0.01,Wunderground v.1.15,2013-06-14 19:25:00,
2013-06-14 15:26:00,85.5,57.7,29.96,WSW,239,2.0,7.0,39,0.00,,,0.01,Wunderground v.1.15,2013-06-14 19:26:00,
2013-06-14 15:27:00,85.5,57.7,29.96,SW,232,7.0,7.0,39,0.00,,,0.01,Wunderground v.1.15,2013-06-14 19:27:00,
2013-06-14 15:30:00,85.3,56.8,29.96,West,281,5.0,5.0,38,0.00,,,0.01,Wunderground v.1.15,2013-06-14 19:30:00,
2013-06-14 15:31:00,85.2,56.7,29.96,SW,218,4.0,5.0,38,0.00,,,0.01,Wunderground v.1.15,2013-06-14 19:31:00,
2013-06-14 15:32:00,85.1,58.1,29.96,West,270,4.0,6.0,40,0.00,,,0.01,Wunderground v.1.15,2013-06-14 19:32:00,
2013-06-14 15:35:00,84.7,57.7,29.96,SSW,207,4.0,11.0,40,0.00,,,0.01,Wunderground v.1.15,2013-06-14 19:35:00,
2013-06-14 15:36:00,84.6,56.9,29.96,WSW,248,2.0,12.0,39,0.00,,,0.01,Wunderground v.1.15,2013-06-14 19:36:00,
2013-06-14 15:37:00,84.6,57.6,29.96,East,92,1.0,12.0,40,0.00,,,0.01,Wunderground v.1.15,2013-06-14 19:37:00,
2013-06-14 15:40:00,84.7,59.7,29.96,WSW,243,3.0,4.0,43,0.00,,,0.01,Wunderground v.1.15,2013-06-14 19:40:00,
2013-06-14 15:41:00,84.8,59.8,29.96,SSE,156,2.0,5.0,43,0.00,,,0.01,Wunderground v.1.15,2013-06-14 19:41:00,
2013-06-14 15:42:00,84.9,57.9,29.95,West,269,4.0,5.0,40,0.00,,,0.01,Wunderground v.1.15,2013-06-14 19:42:00,
2013-06-14 15:45:00,85.0,57.3,29.95,SW,215,3.0,6.0,39,0.00,,,0.01,Wunderground v.1.15,2013-06-14 19:45:00,
2013-06-14 15:46:00,85.1,56.6,29.95,SE,134,1.0,6.0,38,0.00,,,0.01,Wunderground v.1.15,2013-06-14 19:46:00,
2013-06-14 15:47:00,85.1,58.1,29.95,WSW,240,5.0,12.0,40,0.00,,,0.01,Wunderground v.1.15,2013-06-14 19:47:00,
2013-06-14 15:48:00,85.2,59.5,29.95,SW,226,2.0,12.0,42,0.00,,,0.01,Wunderground v.1.15,2013-06-14 19:48:00,
2013-06-14 15:50:00,85.0,57.3,29.95,SW,218,2.0,7.0,39,0.00,,,0.01,Wunderground v.1.15,2013-06-14 19:50:00,
2013-06-14 15:51:00,85.0,58.0,29.96,SSE,160,5.0,7.0,40,0.00,,,0.01,Wunderground v.1.15,2013-06-14 19:51:00,
2013-06-14 15:52:00,85.0,55.8,29.96,SSE,150,8.0,8.0,37,0.00,,,0.01,Wunderground v.1.15,2013-06-14 19:52:00,
2013-06-14 15:53:00,84.9,56.5,29.96,South,169,3.0,8.0,38,0.00,,,0.01,Wunderground v.1.15,2013-06-14 19:53:00,
2013-06-14 15:55:00,84.9,57.9,29.96,South,177,6.0,8.0,40,0.00,,,0.01,Wunderground v.1.15,2013-06-14 19:55:00,
2013-06-14 15:56:00,85.0,56.5,29.96,SSW,204,4.0,8.0,38,0.00,,,0.01,Wunderground v.1.15,2013-06-14 19:56:00,
2013-06-14 15:57:00,85.0,57.3,29.95,SW,229,5.0,8.0,39,0.00,,,0.01,Wunderground v.1.15,2013-06-14 19:57:00,
2013-06-14 15:58:00,85.1,57.4,29.95,SSW,199,2.0,8.0,39,0.00,,,0.01,Wunderground v.1.15,2013-06-14 19:58:00,
2013-06-14 16:00:00,85.0,55.8,29.96,SE,126,9.0,10.0,37,0.00,,,0.01,Wunderground v.1.15,2013-06-14 20:00:00,
2013-06-14 16:02:00,84.8,55.6,29.95,WSW,256,3.0,13.0,37,0.00,,,0.01,Wunderground v.1.15,2013-06-14 20:02:00,
2013-06-14 16:03:00,84.7,57.0,29.96,SW,232,5.0,13.0,39,0.00,,,0.01,Wunderground v.1.15,2013-06-14 20:03:00,
2013-06-14 16:06:00,84.7,56.3,29.95,South,191,3.0,13.0,38,0.00,,,0.01,Wunderground v.1.15,2013-06-14 20:06:00,
2013-06-14 16:07:00,84.8,57.8,29.95,West,267,4.0,13.0,40,0.00,,,0.01,Wunderground v.1.15,2013-06-14 20:07:00,
2013-06-14 16:08:00,85.0,58.7,29.95,SSW,212,3.0,13.0,41,0.00,,,0.01,Wunderground v.1.15,2013-06-14 20:08:00,
2013-06-14 16:11:00,85.1,58.8,29.95,West,265,3.0,6.0,41,0.00,,,0.01,Wunderground v.1.15,2013-06-14 20:11:00,
2013-06-14 16:12:00,85.1,58.1,29.95,SE,142,7.0,8.0,40,0.00,,,0.01,Wunderground v.1.15,2013-06-14 20:12:00,
2013-06-14 16:13:00,85.2,58.8,29.95,SW,221,5.0,9.0,41,0.00,,,0.01,Wunderground v.1.15,2013-06-14 20:13:00,
2013-06-14 16:16:00,85.3,59.6,29.95,East,98,1.0,9.0,42,0.00,,,0.01,Wunderground v.1.15,2013-06-14 20:16:00,
2013-06-14 16:17:00,85.5,59.8,29.95,WSW,239,10.0,10.0,42,0.00,,,0.01,Wunderground v.1.15,2013-06-14 20:17:00,
2013-06-14 16:18:00,85.3,57.5,29.95,WSW,252,3.0,10.0,39,0.00,,,0.01,Wunderground v.1.15,2013-06-14 20:18:00,
2013-06-14 16:19:00,85.2,57.4,29.95,West,260,4.0,10.0,39,0.00,,,0.01,Wunderground v.1.15,2013-06-14 20:19:00,
2013-06-14 16:21:00,85.0,58.0,29.95,SSW,212,1.0,9.0,40,0.00,,,0.01,Wunderground v.1.15,2013-06-14 20:21:00,
2013-06-14 16:22:00,85.0,60.0,29.95,SSW,203,3.0,9.0,43,0.00,,,0.01,Wunderground v.1.15,2013-06-14 20:22:00,
2013-06-14 16:23:00,85.1,58.8,29.95,South,183,8.0,9.0,41,0.00,,,0.01,Wunderground v.1.15,2013-06-14 20:23:00,
2013-06-14 16:24:00,85.2,58.2,29.96,SW,222,8.0,9.0,40,0.00,,,0.01,Wunderground v.1.15,2013-06-14 20:24:00,
2013-06-14 16:26:00,84.8,57.1,29.95,SW,218,3.0,15.0,39,0.00,,,0.01,Wunderground v.1.15,2013-06-14 20:26:00,
2013-06-14 16:27:00,84.7,57.0,29.95,SSE,148,3.0,15.0,39,0.00,,,0.01,Wunderground v.1.15,2013-06-14 20:27:00,
2013-06-14 16:28:00,84.7,57.0,29.95,SSW,197,9.0,15.0,39,0.00,,,0.01,Wunderground v.1.15,2013-06-14 20:28:00,
2013-06-14 16:29:00,84.6,56.2,29.95,SW,224,8.0,15.0,38,0.00,,,0.01,Wunderground v.1.15,2013-06-14 20:29:00,
2013-06-14 16:32:00,84.5,56.8,29.95,South,183,8.0,9.0,39,0.00,,,0.01,Wunderground v.1.15,2013-06-14 20:32:00,
2013-06-14 16:33:00,84.6,57.6,29.95,South,169,6.0,9.0,40,0.00,,,0.01,Wunderground v.1.15,2013-06-14 20:33:00,
2013-06-14 16:34:00,84.7,57.0,29.95,SW,218,6.0,10.0,39,0.00,,,0.01,Wunderground v.1.15,2013-06-14 20:34:00,
2013-06-14 16:37:00,84.7,57.0,29.95,West,261,5.0,10.0,39,0.00,,,0.01,Wunderground v.1.15,2013-06-14 20:37:00,
2013-06-14 16:38:00,84.7,57.7,29.95,SE,145,6.0,10.0,40,0.00,,,0.01,Wunderground v.1.15,2013-06-14 20:38:00,
2013-06-14 16:39:00,84.7,57.7,29.95,South,190,3.0,13.0,40,0.00,,,0.01,Wunderground v.1.15,2013-06-14 20:39:00,
2013-06-14 16:42:00,84.7,58.4,29.95,SW,235,5.0,9.0,41,0.00,,,0.01,Wunderground v.1.15,2013-06-14 20:42:00,
2013-06-14 16:43:00,84.6,56.9,29.95,West,266,4.0,11.0,39,0.00,,,0.01,Wunderground v.1.15,2013-06-14 20:43:00,
2013-06-14 16:44:00,84.3,56.6,29.95,West,274,2.0,11.0,39,0.00,,,0.01,Wunderground v.1.15,2013-06-14 20:44:00,
2013-06-14 16:45:00,84.3,56.6,29.95,West,262,6.0,11.0,39,0.00,,,0.01,Wunderground v.1.15,2013-06-14 20:45:00,
2013-06-14 16:48:00,84.3,57.3,29.95,SSW,210,8.0,15.0,40,0.00,,,0.01,Wunderground v.1.15,2013-06-14 20:48:00,
2013-06-14 16:49:00,84.3,56.6,29.95,SSW,200,6.0,15.0,39,0.00,,,0.01,Wunderground v.1.15,2013-06-14 20:49:00,
2013-06-14 16:50:00,84.3,56.6,29.95,SW,224,7.0,15.0,39,0.00,,,0.01,Wunderground v.1.15,2013-06-14 20:50:00,
2013-06-14 16:53:00,84.1,56.5,29.95,SSE,148,5.0,15.0,39,0.00,,,0.01,Wunderground v.1.15,2013-06-14 20:53:00,
2013-06-14 16:54:00,84.1,57.2,29.95,SSW,197,5.0,15.0,40,0.00,,,0.01,Wunderground v.1.15,2013-06-14 20:54:00,
2013-06-14 16:55:00,84.1,57.2,29.95,SSW,207,8.0,15.0,40,0.00,,,0.01,Wunderground v.1.15,2013-06-14 20:55:00,
2013-06-14 16:58:00,84.0,56.4,29.95,WSW,248,10.0,15.0,39,0.00,,,0.01,Wunderground v.1.15,2013-06-14 20:58:00,
2013-06-14 16:59:00,84.0,55.7,29.95,SSW,193,9.0,15.0,38,0.00,,,0.01,Wunderground v.1.15,2013-06-14 20:59:00,
2013-06-14 17:00:00,83.9,56.3,29.95,SW,221,4.0,6.0,39,0.00,,,0.01,Wunderground v.1.15,2013-06-14 21:00:00,
2013-06-14 17:03:00,83.9,57.7,29.95,SSE,158,9.0,9.0,41,0.00,,,0.01,Wunderground v.1.15,2013-06-14 21:03:00,
2013-06-14 17:04:00,83.9,55.6,29.95,SSE,155,5.0,9.0,38,0.00,,,0.01,Wunderground v.1.15,2013-06-14 21:04:00,
2013-06-14 17:05:00,84.0,56.4,29.95,SSW,200,5.0,10.0,39,0.00,,,0.01,Wunderground v.1.15,2013-06-14 21:05:00,
2013-06-14 17:09:00,84.1,57.2,29.95,SW,225,6.0,10.0,40,0.00,,,0.01,Wunderground v.1.15,2013-06-14 21:09:00,
2013-06-14 17:10:00,84.1,55.7,29.95,WSW,238,3.0,10.0,38,0.00,,,0.01,Wunderground v.1.15,2013-06-14 21:10:00,
2013-06-14 17:11:00,84.0,56.4,29.96,South,176,4.0,9.0,39,0.00,,,0.01,Wunderground v.1.15,2013-06-14 21:11:00,
2013-06-14 17:14:00,84.1,56.5,29.95,South,169,4.0,11.0,39,0.00,,,0.01,Wunderground v.1.15,2013-06-14 21:14:00,
2013-06-14 17:15:00,84.0,57.8,29.95,WSW,245,3.0,11.0,41,0.00,,,0.01,Wunderground v.1.15,2013-06-14 21:15:00,
2013-06-14 17:16:00,83.9,54.8,29.95,SSW,212,9.0,11.0,37,0.00,,,0.01,Wunderground v.1.15,2013-06-14 21:16:00,
2013-06-14 17:19:00,84.0,56.4,29.95,SSE,158,2.0,11.0,39,0.00,,,0.01,Wunderground v.1.15,2013-06-14 21:19:00,
2013-06-14 17:20:00,84.1,57.2,29.95,ENE,67,1.0,11.0,40,0.00,,,0.01,Wunderground v.1.15,2013-06-14 21:20:00,
2013-06-14 17:22:00,84.3,57.3,29.95,SE,145,2.0,8.0,40,0.00,,,0.01,Wunderground v.1.15,2013-06-14 21:22:00,
2013-06-14 17:24:00,84.4,56.7,29.95,SSW,202,7.0,8.0,39,0.00,,,0.01,Wunderground v.1.15,2013-06-14 21:24:00,
2013-06-14 17:25:00,84.4,56.7,29.95,SW,228,8.0,9.0,39,0.00,,,0.01,Wunderground v.1.15,2013-06-14 21:25:00,
2013-06-14 17:27:00,84.3,56.6,29.95,SW,219,4.0,9.0,39,0.00,,,0.01,Wunderground v.1.15,2013-06-14 21:27:00,
2013-06-14 17:29:00,84.4,58.1,29.95,SSE,158,5.0,9.0,41,0.00,,,0.01,Wunderground v.1.15,2013-06-14 21:29:00,
2013-06-14 17:30:00,84.5,57.5,29.95,SSE,168,6.0,9.0,40,0.00,,,0.01,Wunderground v.1.15,2013-06-14 21:30:00,
2013-06-14 17:32:00,84.4,56.7,29.95,West,260,3.0,9.0,39,0.00,,,0.01,Wunderground v.1.15,2013-06-14 21:32:00,
2013-06-14 17:34:00,84.2,55.1,29.95,SW,226,9.0,13.0,37,0.00,,,0.01,Wunderground v.1.15,2013-06-14 21:34:00,
2013-06-14 17:35:00,84.1,55.7,29.95,SW,229,7.0,13.0,38,0.00,,,0.01,Wunderground v.1.15,2013-06-14 21:35:00,
2013-06-14 17:37:00,83.9,55.6,29.95,WSW,248,5.0,13.0,38,0.00,,,0.01,Wunderground v.1.15,2013-06-14 21:37:00,
2013-06-14 17:39:00,84.0,56.4,29.95,SW,236,7.0,13.0,39,0.00,,,0.01,Wunderground v.1.15,2013-06-14 21:39:00,
2013-06-14 17:41:00,83.9,56.3,29.96,West,260,10.0,13.0,39,0.00,,,0.01,Wunderground v.1.15,2013-06-14 21:41:00,
2013-06-14 17:42:00,83.8,56.9,29.96,WSW,248,3.0,13.0,40,0.00,,,0.01,Wunderground v.1.15,2013-06-14 21:42:00,
2013-06-14 17:44:00,83.8,56.2,29.96,SSW,212,6.0,13.0,39,0.00,,,0.01,Wunderground v.1.15,2013-06-14 21:44:00,
2013-06-14 17:45:00,83.8,55.5,29.96,SSW,199,10.0,13.0,38,0.00,,,0.01,Wunderground v.1.15,2013-06-14 21:45:00,
2013-06-14 17:46:00,83.7,56.1,29.95,West,264,6.0,13.0,39,0.00,,,0.01,Wunderground v.1.15,2013-06-14 21:46:00,
2013-06-14 17:47:00,83.8,56.2,29.96,SE,145,4.0,13.0,39,0.00,,,0.01,Wunderground v.1.15,2013-06-14 21:47:00,
2013-06-14 17:50:00,83.9,57.7,29.96,East,95,3.0,13.0,41,0.00,,,0.01,Wunderground v.1.15,2013-06-14 21:50:00,
2013-06-14 17:51:00,83.9,57.7,29.96,West,269,8.0,8.0,41,0.00,,,0.01,Wunderground v.1.15,2013-06-14 21:51:00,
2013-06-14 17:52:00,83.9,57.0,29.96,SSE,167,7.0,11.0,40,0.00,,,0.01,Wunderground v.1.15,2013-06-14 21:52:00,
2013-06-14 17:55:00,83.6,56.7,29.96,SW,218,4.0,16.0,40,0.00,,,0.01,Wunderground v.1.15,2013-06-14 21:55:00,
2013-06-14 17:56:00,83.5,56.6,29.96,SSW,204,2.0,16.0,40,0.00,,,0.01,Wunderground v.1.15,2013-06-14 21:56:00,
2013-06-14 17:57:00,83.4,57.2,29.96,NW,313,6.0,16.0,41,0.00,,,0.01,Wunderground v.1.15,2013-06-14 21:57:00,
2013-06-14 18:00:00,83.2,56.4,29.96,South,180,6.0,8.0,40,0.00,,,0.01,Wunderground v.1.15,2013-06-14 22:00:00,
2013-06-14 18:01:00,83.2,57.7,29.96,WSW,240,4.0,8.0,42,0.00,,,0.01,Wunderground v.1.15,2013-06-14 22:01:00,
2013-06-14 18:02:00,83.2,57.7,29.96,SW,218,5.0,8.0,42,0.00,,,0.01,Wunderground v.1.15,2013-06-14 22:02:00,
2013-06-14 18:05:00,83.2,57.7,29.96,WSW,246,1.0,8.0,42,0.00,,,0.01,Wunderground v.1.15,2013-06-14 22:05:00,
2013-06-14 18:06:00,83.3,56.5,29.96,WSW,253,7.0,8.0,40,0.00,,,0.01,Wunderground v.1.15,2013-06-14 22:06:00,
2013-06-14 18:07:00,83.2,56.4,29.96,SW,216,5.0,8.0,40,0.00,,,0.01,Wunderground v.1.15,2013-06-14 22:07:00,
2013-06-14 18:10:00,82.7,57.3,29.96,SW,218,2.0,6.0,42,0.00,,,0.01,Wunderground v.1.15,2013-06-14 22:10:00,
2013-06-14 18:11:00,82.7,57.3,29.96,WSW,243,10.0,10.0,42,0.00,,,0.01,Wunderground v.1.15,2013-06-14 22:11:00,
2013-06-14 18:12:00,82.5,56.4,29.96,SSW,193,5.0,10.0,41,0.00,,,0.01,Wunderground v.1.15,2013-06-14 22:12:00,
2013-06-14 18:15:00,81.9,57.2,29.97,SW,222,3.0,10.0,43,0.00,,,0.01,Wunderground v.1.15,2013-06-14 22:15:00,
2013-06-14 18:16:00,81.8,56.5,29.97,WSW,243,11.0,11.0,42,0.00,,,0.01,Wunderground v.1.15,2013-06-14 22:16:00,
2013-06-14 18:17:00,81.7,57.0,29.97,SSW,194,5.0,11.0,43,0.00,,,0.01,Wunderground v.1.15,2013-06-14 22:17:00,
2013-06-14 18:18:00,81.7,57.0,29.97,SSW,193,3.0,11.0,43,0.00,,,0.01,Wunderground v.1.15,2013-06-14 22:18:00,
2013-06-14 18:20:00,81.6,56.9,29.97,WSW,249,8.0,8.0,43,0.00,,,0.01,Wunderground v.1.15,2013-06-14 22:20:00,
2013-06-14 18:21:00,81.6,56.3,29.97,SW,215,3.0,9.0,42,0.00,,,0.01,Wunderground v.1.15,2013-06-14 22:21:00,
2013-06-14 18:22:00,81.6,56.9,29.97,WSW,248,7.0,9.0,43,0.00,,,0.01,Wunderground v.1.15,2013-06-14 22:22:00,
2013-06-14 18:23:00,81.6,56.9,29.97,SW,235,3.0,13.0,43,0.00,,,0.01,Wunderground v.1.15,2013-06-14 22:23:00,
2013-06-14 18:25:00,81.9,57.8,29.97,WSW,240,5.0,13.0,44,0.00,,,0.01,Wunderground v.1.15,2013-06-14 22:25:00,
2013-06-14 18:26:00,81.9,55.9,29.97,South,169,3.0,13.0,41,0.00,,,0.01,Wunderground v.1.15,2013-06-14 22:26:00,
2013-06-14 18:27:00,82.0,56.6,29.97,SW,233,6.0,13.0,42,0.00,,,0.01,Wunderground v.1.15,2013-06-14 22:27:00,
2013-06-14 18:28:00,82.0,56.0,29.97,South,174,2.0,13.0,41,0.00,,,0.01,Wunderground v.1.15,2013-06-14 22:28:00,
2013-06-14 18:31:00,82.1,56.1,29.97,WSW,238,8.0,8.0,41,0.00,,,0.01,Wunderground v.1.15,2013-06-14 22:31:00,
2013-06-14 18:32:00,82.1,56.7,29.97,East,98,3.0,9.0,42,0.00,,,0.01,Wunderground v.1.15,2013-06-14 22:32:00,
2013-06-14 18:33:00,82.1,56.7,29.97,WSW,246,5.0,9.0,42,0.00,,,0.01,Wunderground v.1.15,2013-06-14 22:33:00,
2013-06-14 18:36:00,82.3,56.9,29.97,SW,229,6.0,9.0,42,0.00,,,0.01,Wunderground v.1.15,2013-06-14 22:36:00,
2013-06-14 18:37:00,82.3,57.6,29.97,SSW,194,2.0,9.0,43,0.00,,,0.01,Wunderground v.1.15,2013-06-14 22:37:00,
2013-06-14 18:38:00,82.4,57.7,29.97,WSW,248,2.0,9.0,43,0.00,,,0.01,Wunderground v.1.15,2013-06-14 22:38:00,
2013-06-14 18:41:00,82.3,57.6,29.97,WNW,287,2.0,7.0,43,0.00,,,0.01,Wunderground v.1.15,2013-06-14 22:41:00,
2013-06-14 18:42:00,82.3,56.9,29.97,SSW,212,4.0,7.0,42,0.00,,,0.01,Wunderground v.1.15,2013-06-14 22:42:00,
2013-06-14 18:43:00,82.3,56.9,29.97,WSW,248,2.0,10.0,42,0.00,,,0.01,Wunderground v.1.15,2013-06-14 22:43:00,
2013-06-14 18:46:00,82.3,57.6,29.97,SSE,163,4.0,10.0,43,0.00,,,0.01,Wunderground v.1.15,2013-06-14 22:46:00,
2013-06-14 18:47:00,82.3,57.6,29.97,WSW,238,4.0,10.0,43,0.00,,,0.01,Wunderground v.1.15,2013-06-14 22:47:00,
2013-06-14 18:48:00,82.3,57.6,29.97,SSW,197,2.0,10.0,43,0.00,,,0.01,Wunderground v.1.15,2013-06-14 22:48:00,
2013-06-14 18:49:00,82.3,57.6,29.97,SSE,163,2.0,10.0,43,0.00,,,0.01,Wunderground v.1.15,2013-06-14 22:49:00,
2013-06-14 18:51:00,82.5,57.7,29.97,WSW,238,6.0,6.0,43,0.00,,,0.01,Wunderground v.1.15,2013-06-14 22:51:00,
2013-06-14 18:52:00,82.4,57.7,29.97,WSW,248,3.0,6.0,43,0.00,,,0.01,Wunderground v.1.15,2013-06-14 22:52:00,
2013-06-14 18:54:00,82.4,58.3,29.97,SSW,207,0.0,6.0,44,0.00,,,0.01,Wunderground v.1.15,2013-06-14 22:54:00,
2013-06-14 18:57:00,82.5,59.0,29.97,South,174,2.0,6.0,45,0.00,,,0.01,Wunderground v.1.15,2013-06-14 22:57:00,
2013-06-14 18:58:00,82.5,57.7,29.97,SW,221,4.0,7.0,43,0.00,,,0.01,Wunderground v.1.15,2013-06-14 22:58:00,
2013-06-14 18:59:00,82.5,57.7,29.97,SSE,148,1.0,7.0,43,0.00,,,0.01,Wunderground v.1.15,2013-06-14 22:59:00,
2013-06-14 19:02:00,82.3,57.6,29.98,West,269,7.0,10.0,43,0.00,,,0.01,Wunderground v.1.15,2013-06-14 23:02:00,
2013-06-14 19:03:00,82.1,57.4,29.98,SSW,212,4.0,10.0,43,0.00,,,0.01,Wunderground v.1.15,2013-06-14 23:03:00,
2013-06-14 19:04:00,81.9,57.8,29.98,SSW,207,1.0,10.0,44,0.00,,,0.01,Wunderground v.1.15,2013-06-14 23:04:00,
2013-06-14 19:07:00,81.9,57.2,29.98,WSW,250,3.0,10.0,43,0.00,,,0.01,Wunderground v.1.15,2013-06-14 23:07:00,
2013-06-14 19:08:00,81.8,57.8,29.98,ESE,122,2.0,10.0,44,0.00,,,0.01,Wunderground v.1.15,2013-06-14 23:08:00,
2013-06-14 19:09:00,81.8,57.1,29.98,SW,234,4.0,10.0,43,0.00,,,0.01,Wunderground v.1.15,2013-06-14 23:09:00,
2013-06-14 19:12:00,81.5,58.1,29.98,SW,218,1.0,7.0,45,0.00,,,0.01,Wunderground v.1.15,2013-06-14 23:12:00,
2013-06-14 19:13:00,81.3,57.3,29.98,West,274,2.0,11.0,44,0.00,,,0.01,Wunderground v.1.15,2013-06-14 23:13:00,
2013-06-14 19:14:00,81.2,57.8,29.98,WSW,257,3.0,11.0,45,0.00,,,0.01,Wunderground v.1.15,2013-06-14 23:14:00,
2013-06-14 19:15:00,81.0,57.7,29.98,South,191,2.0,11.0,45,0.00,,,0.01,Wunderground v.1.15,2013-06-14 23:15:00,
2013-06-14 19:17:00,80.8,57.5,29.98,SW,226,5.0,11.0,45,0.00,,,0.01,Wunderground v.1.15,2013-06-14 23:17:00,
2013-06-14 19:18:00,80.7,57.4,29.98,SW,229,2.0,11.0,45,0.00,,,0.01,Wunderground v.1.15,2013-06-14 23:18:00,
2013-06-14 19:19:00,80.6,57.9,29.98,SW,231,4.0,11.0,46,0.00,,,0.01,Wunderground v.1.15,2013-06-14 23:19:00,
2013-06-14 19:20:00,80.4,57.7,29.98,West,262,2.0,4.0,46,0.00,,,0.01,Wunderground v.1.15,2013-06-14 23:20:00,
2013-06-14 19:22:00,80.2,57.5,29.98,SSW,210,1.0,5.0,46,0.00,,,0.01,Wunderground v.1.15,2013-06-14 23:22:00,
2013-06-14 19:23:00,80.1,58.0,29.98,West,259,1.0,5.0,47,0.00,,,0.01,Wunderground v.1.15,2013-06-14 23:23:00,
2013-06-14 19:24:00,80.1,58.0,29.98,SE,146,3.0,5.0,47,0.00,,,0.01,Wunderground v.1.15,2013-06-14 23:24:00,
2013-06-14 19:25:00,80.0,58.0,29.98,SSW,192,1.0,5.0,47,0.00,,,0.01,Wunderground v.1.15,2013-06-14 23:25:00,
2013-06-14 19:28:00,80.0,58.0,29.99,SW,218,4.0,5.0,47,0.00,,,0.01,Wunderground v.1.15,2013-06-14 23:28:00,
2013-06-14 19:29:00,80.0,58.0,29.99,WSW,243,4.0,5.0,47,0.00,,,0.01,Wunderground v.1.15,2013-06-14 23:29:00,
2013-06-14 19:30:00,79.9,57.9,29.99,SW,215,1.0,4.0,47,0.00,,,0.01,Wunderground v.1.15,2013-06-14 23:30:00,
2013-06-14 19:33:00,79.8,58.4,29.99,SSW,210,3.0,4.0,48,0.00,,,0.01,Wunderground v.1.15,2013-06-14 23:33:00,
2013-06-14 19:34:00,79.8,58.4,29.99,South,176,3.0,4.0,48,0.00,,,0.01,Wunderground v.1.15,2013-06-14 23:34:00,
2013-06-14 19:35:00,79.7,58.3,29.99,SW,215,1.0,4.0,48,0.00,,,0.01,Wunderground v.1.15,2013-06-14 23:35:00,
2013-06-14 19:39:00,79.4,58.6,29.99,WSW,250,1.0,4.0,49,0.00,,,0.01,Wunderground v.1.15,2013-06-14 23:39:00,
2013-06-14 19:40:00,79.4,59.1,29.99,WSW,256,1.0,4.0,50,0.00,,,0.01,Wunderground v.1.15,2013-06-14 23:40:00,
2013-06-14 19:41:00,79.3,58.5,29.99,West,273,2.0,4.0,49,0.00,,,0.01,Wunderground v.1.15,2013-06-14 23:41:00,
2013-06-14 19:44:00,79.1,58.3,29.99,SW,235,1.0,6.0,49,0.00,,,0.01,Wunderground v.1.15,2013-06-14 23:44:00,
2013-06-14 19:45:00,79.0,58.2,29.99,West,267,0.0,6.0,49,0.00,,,0.01,Wunderground v.1.15,2013-06-14 23:45:00,
2013-06-14 19:46:00,79.0,58.8,29.99,SSW,197,1.0,6.0,50,0.00,,,0.01,Wunderground v.1.15,2013-06-14 23:46:00,
2013-06-14 19:49:00,79.0,58.8,29.99,SW,221,4.0,6.0,50,0.00,,,0.01,Wunderground v.1.15,2013-06-14 23:49:00,
2013-06-14 19:50:00,78.9,58.1,29.99,SW,228,2.0,2.0,49,0.00,,,0.01,Wunderground v.1.15,2013-06-14 23:50:00,
2013-06-14 19:51:00,78.8,58.6,29.99,WSW,243,0.0,2.0,50,0.00,,,0.01,Wunderground v.1.15,2013-06-14 23:51:00,
2013-06-14 19:54:00,78.6,58.4,30.00,SW,232,0.0,2.0,50,0.00,,,0.01,Wunderground v.1.15,2013-06-14 23:54:00,
2013-06-14 19:55:00,78.5,59.4,29.99,WSW,248,0.0,2.0,52,0.00,,,0.01,Wunderground v.1.15,2013-06-14 23:55:00,
2013-06-14 19:56:00,78.5,58.9,29.99,SW,232,0.0,2.0,51,0.00,,,0.01,Wunderground v.1.15,2013-06-14 23:56:00,
2013-06-14 19:59:00,78.3,58.7,30.00,South,186,0.0,3.0,51,0.00,,,0.01,Wunderground v.1.15,2013-06-14 23:59:00,
2013-06-14 20:00:00,78.3,59.2,30.00,South,186,0.0,3.0,52,0.00,,,0.01,Wunderground v.1.15,2013-06-15 00:00:00,
2013-06-14 20:01:00,78.3,58.7,30.00,South,191,2.0,2.0,51,0.00,,,0.01,Wunderground v.1.15,2013-06-15 00:01:00,
2013-06-14 20:05:00,78.3,59.2,30.00,SSW,207,1.0,3.0,52,0.00,,,0.01,Wunderground v.1.15,2013-06-15 00:05:00,
2013-06-14 20:06:00,78.3,59.8,30.00,WSW,257,3.0,3.0,53,0.00,,,0.01,Wunderground v.1.15,2013-06-15 00:06:00,
2013-06-14 20:10:00,78.0,58.9,30.00,WSW,238,1.0,1.0,52,0.00,,,0.01,Wunderground v.1.15,2013-06-15 00:10:00,
2013-06-14 20:11:00,78.0,58.9,30.00,SE,145,0.0,1.0,52,0.00,,,0.01,Wunderground v.1.15,2013-06-15 00:11:00,
2013-06-14 20:12:00,77.9,58.9,30.00,West,262,2.0,2.0,52,0.00,,,0.01,Wunderground v.1.15,2013-06-15 00:12:00,
2013-06-14 20:15:00,77.6,58.6,30.00,WSW,248,2.0,4.0,52,0.00,,,0.01,Wunderground v.1.15,2013-06-15 00:15:00,
2013-06-14 20:16:00,77.5,58.5,30.00,WSW,253,0.0,4.0,52,0.00,,,0.01,Wunderground v.1.15,2013-06-15 00:16:00,
2013-06-14 20:17:00,77.5,58.5,30.00,WSW,252,0.0,4.0,52,0.00,,,0.01,Wunderground v.1.15,2013-06-15 00:17:00,
2013-06-14 20:20:00,77.2,58.7,30.00,WSW,252,0.0,1.0,53,0.00,,,0.01,Wunderground v.1.15,2013-06-15 00:20:00,
2013-06-14 20:21:00,77.1,59.2,30.01,WSW,252,0.0,1.0,54,0.00,,,0.01,Wunderground v.1.15,2013-06-15 00:21:00,
2013-06-14 20:22:00,77.0,59.1,30.01,WSW,252,0.0,1.0,54,0.00,,,0.01,Wunderground v.1.15,2013-06-15 00:22:00,
2013-06-14 20:25:00,76.6,58.2,30.00,SW,229,0.0,2.0,53,0.00,,,0.01,Wunderground v.1.15,2013-06-15 00:25:00,
2013-06-14 20:26:00,76.5,58.1,30.00,WSW,239,1.0,2.0,53,0.00,,,0.01,Wunderground v.1.15,2013-06-15 00:26:00,
2013-06-14 20:27:00,76.4,58.0,30.00,WSW,240,0.0,2.0,53,0.00,,,0.01,Wunderground v.1.15,2013-06-15 00:27:00,
2013-06-14 20:30:00,76.1,57.7,30.00,WSW,250,1.0,1.0,53,0.00,,,0.01,Wunderground v.1.15,2013-06-15 00:30:00,
2013-06-14 20:31:00,76.1,57.7,30.00,WSW,238,1.0,2.0,53,0.00,,,0.01,Wunderground v.1.15,2013-06-15 00:31:00,
2013-06-14 20:32:00,76.0,57.6,30.00,WSW,238,1.0,2.0,53,0.00,,,0.01,Wunderground v.1.15,2013-06-15 00:32:00,
2013-06-14 20:35:00,75.8,58.0,30.01,WSW,238,0.0,2.0,54,0.00,,,0.01,Wunderground v.1.15,2013-06-15 00:35:00,
2013-06-14 20:36:00,75.7,57.9,30.01,WSW,238,0.0,2.0,54,0.00,,,0.01,Wunderground v.1.15,2013-06-15 00:36:00,
2013-06-14 20:37:00,75.7,57.9,30.01,WSW,238,0.0,2.0,54,0.00,,,0.01,Wunderground v.1.15,2013-06-15 00:37:00,
2013-06-14 20:40:00,75.4,57.6,30.01,SW,221,0.0,1.0,54,0.00,,,0.01,Wunderground v.1.15,2013-06-15 00:40:00,
2013-06-14 20:41:00,75.3,58.0,30.01,SW,221,0.0,1.0,55,0.00,,,0.01,Wunderground v.1.15,2013-06-15 00:41:00,
2013-06-14 20:42:00,75.3,58.5,30.01,SW,221,0.0,1.0,56,0.00,,,0.01,Wunderground v.1.15,2013-06-15 00:42:00,
2013-06-14 20:46:00,74.9,60.5,30.01,SW,221,0.0,1.0,61,0.00,,,0.01,Wunderground v.1.15,2013-06-15 00:46:00,
2013-06-14 20:47:00,74.7,61.3,30.01,SW,215,0.0,1.0,63,0.00,,,0.01,Wunderground v.1.15,2013-06-15 00:47:00,
2013-06-14 20:51:00,73.9,61.0,30.01,SW,215,0.0,1.0,64,0.00,,,0.01,Wunderground v.1.15,2013-06-15 00:51:00,
2013-06-14 20:52:00,73.7,61.6,30.01,SW,215,0.0,1.0,66,0.00,,,0.01,Wunderground v.1.15,2013-06-15 00:52:00,
2013-06-14 20:53:00,73.6,62.0,30.01,SW,215,0.0,1.0,67,0.00,,,0.01,Wunderground v.1.15,2013-06-15 00:53:00,
2013-06-14 20:56:00,73.0,61.8,30.01,SW,215,0.0,1.0,68,0.00,,,0.01,Wunderground v.1.15,2013-06-15 00:56:00,
2013-06-14 20:57:00,72.8,62.0,30.01,SW,215,0.0,1.0,69,0.00,,,0.01,Wunderground v.1.15,2013-06-15 00:57:00,
2013-06-14 20:58:00,72.7,61.9,30.01,SW,215,0.0,1.0,69,0.00,,,0.01,Wunderground v.1.15,2013-06-15 00:58:00,
2013-06-14 21:01:00,72.2,61.5,30.01,SW,214,0.0,0.0,69,0.00,,,0.01,Wunderground v.1.15,2013-06-15 01:01:00,
2013-06-14 21:02:00,72.0,61.7,30.01,SW,215,0.0,0.0,70,0.00,,,0.01,Wunderground v.1.15,2013-06-15 01:02:00,
2013-06-14 21:03:00,71.9,61.6,30.01,SW,215,0.0,0.0,70,0.00,,,0.01,Wunderground v.1.15,2013-06-15 01:03:00,
2013-06-14 21:06:00,71.3,61.4,30.01,SW,215,0.0,0.0,71,0.00,,,0.01,Wunderground v.1.15,2013-06-15 01:06:00,
2013-06-14 21:07:00,71.2,61.3,30.02,SW,215,0.0,0.0,71,0.00,,,0.01,Wunderground v.1.15,2013-06-15 01:07:00,
2013-06-14 21:08:00,71.0,61.5,30.02,SW,215,0.0,0.0,72,0.00,,,0.01,Wunderground v.1.15,2013-06-15 01:08:00,
2013-06-14 21:09:00,70.8,61.3,30.02,SW,215,0.0,0.0,72,0.00,,,0.01,Wunderground v.1.15,2013-06-15 01:09:00,
2013-06-14 21:11:00,70.5,61.0,30.02,SW,215,0.0,0.0,72,0.00,,,0.01,Wunderground v.1.15,2013-06-15 01:11:00,
2013-06-14 21:12:00,70.5,61.0,30.02,SW,215,0.0,0.0,72,0.00,,,0.01,Wunderground v.1.15,2013-06-15 01:12:00,
2013-06-14 21:13:00,70.3,61.6,30.02,SW,215,0.0,0.0,74,0.00,,,0.01,Wunderground v.1.15,2013-06-15 01:13:00,
2013-06-14 21:15:00,70.2,61.5,30.02,SW,215,0.0,0.0,74,0.00,,,0.01,Wunderground v.1.15,2013-06-15 01:15:00,
2013-06-14 21:16:00,70.0,61.3,30.02,SW,218,0.0,0.0,74,0.00,,,0.01,Wunderground v.1.15,2013-06-15 01:16:00,
2013-06-14 21:17:00,69.9,61.2,30.02,SW,215,0.0,0.0,74,0.00,,,0.01,Wunderground v.1.15,2013-06-15 01:17:00,
2013-06-14 21:18:00,69.8,61.1,30.02,SW,215,0.0,1.0,74,0.00,,,0.01,Wunderground v.1.15,2013-06-15 01:18:00,
2013-06-14 21:20:00,69.5,60.8,30.02,SW,215,0.0,0.0,74,0.00,,,0.01,Wunderground v.1.15,2013-06-15 01:20:00,
2013-06-14 21:22:00,69.4,61.1,30.02,SW,215,0.0,0.0,75,0.00,,,0.01,Wunderground v.1.15,2013-06-15 01:22:00,
2013-06-14 21:23:00,69.2,61.3,30.02,SW,215,0.0,0.0,76,0.00,,,0.01,Wunderground v.1.15,2013-06-15 01:23:00,
2013-06-14 21:24:00,69.2,60.9,30.02,SW,216,0.0,0.0,75,0.00,,,0.01,Wunderground v.1.15,2013-06-15 01:24:00,
2013-06-14 21:26:00,68.9,61.0,30.02,SW,216,0.0,0.0,76,0.00,,,0.01,Wunderground v.1.15,2013-06-15 01:26:00,
2013-06-14 21:27:00,68.9,61.0,30.02,SW,215,0.0,0.0,76,0.00,,,0.01,Wunderground v.1.15,2013-06-15 01:27:00,
2013-06-14 21:28:00,68.8,61.3,30.02,SW,215,0.0,0.0,77,0.00,,,0.01,Wunderground v.1.15,2013-06-15 01:28:00,
2013-06-14 21:29:00,68.6,60.7,30.02,SW,215,0.0,0.0,76,0.00,,,0.01,Wunderground v.1.15,2013-06-15 01:29:00,
2013-06-14 21:32:00,68.4,60.5,30.02,SW,215,0.0,0.0,76,0.00,,,0.01,Wunderground v.1.15,2013-06-15 01:32:00,
2013-06-14 21:33:00,68.3,60.4,30.02,SW,215,0.0,0.0,76,0.00,,,0.01,Wunderground v.1.15,2013-06-15 01:33:00,
2013-06-14 21:34:00,68.2,60.3,30.03,SW,215,0.0,0.0,76,0.00,,,0.01,Wunderground v.1.15,2013-06-15 01:34:00,
2013-06-14 21:37:00,68.0,60.9,30.03,SW,215,0.0,0.0,78,0.00,,,0.01,Wunderground v.1.15,2013-06-15 01:37:00,
2013-06-14 21:39:00,67.9,60.8,30.03,SW,215,1.0,1.0,78,0.00,,,0.01,Wunderground v.1.15,2013-06-15 01:39:00,
2013-06-14 21:43:00,67.6,61.2,30.03,SW,215,0.0,1.0,80,0.00,,,0.01,Wunderground v.1.15,2013-06-15 01:43:00,
2013-06-14 21:44:00,67.5,60.8,30.03,SW,216,0.0,1.0,79,0.00,,,0.01,Wunderground v.1.15,2013-06-15 01:44:00,
2013-06-14 21:45:00,67.5,60.8,30.03,SW,215,0.0,1.0,79,0.00,,,0.01,Wunderground v.1.15,2013-06-15 01:45:00,
2013-06-14 21:48:00,67.3,60.9,30.03,SW,215,0.0,1.0,80,0.00,,,0.01,Wunderground v.1.15,2013-06-15 01:48:00,
2013-06-14 21:49:00,67.2,60.8,30.03,SW,215,0.0,1.0,80,0.00,,,0.01,Wunderground v.1.15,2013-06-15 01:49:00,
2013-06-14 21:50:00,67.1,60.7,30.03,SW,215,0.0,0.0,80,0.00,,,0.01,Wunderground v.1.15,2013-06-15 01:50:00,
2013-06-14 21:53:00,66.9,60.9,30.04,SW,215,0.0,0.0,81,0.00,,,0.01,Wunderground v.1.15,2013-06-15 01:53:00,
2013-06-14 21:55:00,66.8,60.8,30.04,SW,215,0.0,0.0,81,0.00,,,0.01,Wunderground v.1.15,2013-06-15 01:55:00,
2013-06-14 21:58:00,66.7,60.7,30.04,SW,215,0.0,0.0,81,0.00,,,0.01,Wunderground v.1.15,2013-06-15 01:58:00,
2013-06-14 22:00:00,66.6,60.9,30.04,SW,215,0.0,0.0,82,0.00,,,0.01,Wunderground v.1.15,2013-06-15 02:00:00,
2013-06-14 22:03:00,66.4,61.1,30.04,SW,215,0.0,0.0,83,0.00,,,0.01,Wunderground v.1.15,2013-06-15 02:03:00,
2013-06-14 22:05:00,66.3,61.0,30.04,SW,216,0.0,0.0,83,0.00,,,0.01,Wunderground v.1.15,2013-06-15 02:05:00,
2013-06-14 22:06:00,66.3,61.0,30.04,SW,216,0.0,0.0,83,0.00,,,0.01,Wunderground v.1.15,2013-06-15 02:06:00,
2013-06-14 22:08:00,66.1,60.8,30.04,SW,215,0.0,0.0,83,0.00,,,0.01,Wunderground v.1.15,2013-06-15 02:08:00,
2013-06-14 22:10:00,66.0,61.0,30.04,SW,215,0.0,0.0,84,0.00,,,0.01,Wunderground v.1.15,2013-06-15 02:10:00,
2013-06-14 22:11:00,65.9,60.9,30.04,SW,215,0.0,0.0,84,0.00,,,0.01,Wunderground v.1.15,2013-06-15 02:11:00,
2013-06-14 22:13:00,65.8,61.2,30.04,SW,215,0.0,0.0,85,0.00,,,0.01,Wunderground v.1.15,2013-06-15 02:13:00,
2013-06-14 22:15:00,65.7,60.7,30.05,SW,215,0.0,0.0,84,0.00,,,0.01,Wunderground v.1.15,2013-06-15 02:15:00,
2013-06-14 22:16:00,65.6,60.6,30.05,SW,215,0.0,0.0,84,0.00,,,0.01,Wunderground v.1.15,2013-06-15 02:16:00,
2013-06-14 22:18:00,65.5,60.5,30.05,SW,215,0.0,0.0,84,0.00,,,0.01,Wunderground v.1.15,2013-06-15 02:18:00,
2013-06-14 22:19:00,65.4,60.4,30.05,SW,216,0.0,0.0,84,0.00,,,0.01,Wunderground v.1.15,2013-06-15 02:19:00,
2013-06-14 22:21:00,65.3,60.3,30.05,SW,215,0.0,0.0,84,0.00,,,0.01,Wunderground v.1.15,2013-06-15 02:21:00,
2013-06-14 22:23:00,65.1,60.5,30.05,SW,215,0.0,0.0,85,0.00,,,0.01,Wunderground v.1.15,2013-06-15 02:23:00,
2013-06-14 22:24:00,65.1,60.5,30.05,SW,215,0.0,0.0,85,0.00,,,0.01,Wunderground v.1.15,2013-06-15 02:24:00,
2013-06-14 22:26:00,65.0,60.7,30.05,SW,215,0.0,0.0,86,0.00,,,0.01,Wunderground v.1.15,2013-06-15 02:26:00,
2013-06-14 22:27:00,65.0,60.7,30.05,SW,215,0.0,0.0,86,0.00,,,0.01,Wunderground v.1.15,2013-06-15 02:27:00,
2013-06-14 22:29:00,64.9,60.6,30.05,SW,215,0.0,0.0,86,0.00,,,0.01,Wunderground v.1.15,2013-06-15 02:29:00,
2013-06-14 22:31:00,64.8,60.5,30.06,SW,215,0.0,0.0,86,0.00,,,0.01,Wunderground v.1.15,2013-06-15 02:31:00,
2013-06-14 22:32:00,64.8,60.8,30.06,SW,215,0.0,0.0,87,0.00,,,0.01,Wunderground v.1.15,2013-06-15 02:32:00,
2013-06-14 22:34:00,64.7,60.7,30.06,SW,215,0.0,0.0,87,0.00,,,0.01,Wunderground v.1.15,2013-06-15 02:34:00,
2013-06-14 22:36:00,64.7,60.7,30.06,SW,215,0.0,0.0,87,0.00,,,0.01,Wunderground v.1.15,2013-06-15 02:36:00,
2013-06-14 22:38:00,64.6,60.6,30.06,SW,215,0.0,0.0,87,0.00,,,0.01,Wunderground v.1.15,2013-06-15 02:38:00,
2013-06-14 22:39:00,64.6,60.6,30.06,SW,215,0.0,0.0,87,0.00,,,0.01,Wunderground v.1.15,2013-06-15 02:39:00,
2013-06-14 22:41:00,64.5,60.2,30.06,SW,215,0.0,0.0,86,0.00,,,0.01,Wunderground v.1.15,2013-06-15 02:41:00,
2013-06-14 22:43:00,64.4,60.1,30.06,SW,215,0.0,0.0,86,0.00,,,0.01,Wunderground v.1.15,2013-06-15 02:43:00,
2013-06-14 22:44:00,64.4,60.1,30.06,SW,215,0.0,0.0,86,0.00,,,0.01,Wunderground v.1.15,2013-06-15 02:44:00,
2013-06-14 22:45:00,64.3,60.3,30.06,SW,215,0.0,0.0,87,0.00,,,0.01,Wunderground v.1.15,2013-06-15 02:45:00,
2013-06-14 22:46:00,64.3,60.3,30.06,SW,215,0.0,0.0,87,0.00,,,0.01,Wunderground v.1.15,2013-06-15 02:46:00,
2013-06-14 22:48:00,64.2,60.2,30.06,SW,216,0.0,0.0,87,0.00,,,0.01,Wunderground v.1.15,2013-06-15 02:48:00,
2013-06-14 22:49:00,64.2,60.6,30.06,SW,215,0.0,0.0,88,0.00,,,0.01,Wunderground v.1.15,2013-06-15 02:49:00,
2013-06-14 22:50:00,64.2,60.6,30.06,SW,216,0.0,0.0,88,0.00,,,0.01,Wunderground v.1.15,2013-06-15 02:50:00,
2013-06-14 22:51:00,64.1,60.5,30.06,SW,215,0.0,0.0,88,0.00,,,0.01,Wunderground v.1.15,2013-06-15 02:51:00,
2013-06-14 22:53:00,64.1,60.5,30.06,SW,215,0.0,0.0,88,0.00,,,0.01,Wunderground v.1.15,2013-06-15 02:53:00,
2013-06-14 22:54:00,64.0,60.4,30.07,SW,215,0.0,0.0,88,0.00,,,0.01,Wunderground v.1.15,2013-06-15 02:54:00,
2013-06-14 22:55:00,64.0,60.4,30.07,SW,215,0.0,0.0,88,0.00,,,0.01,Wunderground v.1.15,2013-06-15 02:55:00,
2013-06-14 22:56:00,63.9,60.3,30.07,SW,215,0.0,0.0,88,0.00,,,0.01,Wunderground v.1.15,2013-06-15 02:56:00,
2013-06-14 22:58:00,63.9,60.3,30.07,SW,215,0.0,0.0,88,0.00,,,0.01,Wunderground v.1.15,2013-06-15 02:58:00,
2013-06-14 23:00:00,63.8,60.2,30.07,SW,215,0.0,0.0,88,0.00,,,0.01,Wunderground v.1.15,2013-06-15 03:00:00,
2013-06-14 23:02:00,63.7,60.1,30.07,SW,215,0.0,0.0,88,0.00,,,0.01,Wunderground v.1.15,2013-06-15 03:02:00,
2013-06-14 23:03:00,63.6,60.0,30.07,SW,215,0.0,0.0,88,0.00,,,0.01,Wunderground v.1.15,2013-06-15 03:03:00,
2013-06-14 23:05:00,63.5,59.9,30.07,SW,215,0.0,0.0,88,0.00,,,0.01,Wunderground v.1.15,2013-06-15 03:05:00,
2013-06-14 23:07:00,63.5,59.9,30.07,SW,215,0.0,0.0,88,0.00,,,0.01,Wunderground v.1.15,2013-06-15 03:07:00,
2013-06-14 23:08:00,63.4,59.8,30.07,SW,215,0.0,0.0,88,0.00,,,0.01,Wunderground v.1.15,2013-06-15 03:08:00,
2013-06-14 23:10:00,63.3,59.7,30.07,SW,215,0.0,0.0,88,0.00,,,0.01,Wunderground v.1.15,2013-06-15 03:10:00,
2013-06-14 23:11:00,63.3,60.0,30.07,SW,215,0.0,0.0,89,0.00,,,0.01,Wunderground v.1.15,2013-06-15 03:11:00,
2013-06-14 23:12:00,63.3,60.0,30.07,SW,215,0.0,0.0,89,0.00,,,0.01,Wunderground v.1.15,2013-06-15 03:12:00,
2013-06-14 23:14:00,63.3,60.0,30.07,SW,215,0.0,0.0,89,0.00,,,0.01,Wunderground v.1.15,2013-06-15 03:14:00,
2013-06-14 23:15:00,63.3,60.0,30.07,SW,215,0.0,0.0,89,0.00,,,0.01,Wunderground v.1.15,2013-06-15 03:15:00,
2013-06-14 23:16:00,63.3,60.0,30.07,SW,215,0.0,0.0,89,0.00,,,0.01,Wunderground v.1.15,2013-06-15 03:16:00,
2013-06-14 23:17:00,63.2,59.9,30.07,SW,216,0.0,0.0,89,0.00,,,0.01,Wunderground v.1.15,2013-06-15 03:17:00,
2013-06-14 23:19:00,63.2,59.9,30.07,SW,215,0.0,0.0,89,0.00,,,0.01,Wunderground v.1.15,2013-06-15 03:19:00,
2013-06-14 23:20:00,63.1,59.8,30.07,SW,215,0.0,0.0,89,0.00,,,0.01,Wunderground v.1.15,2013-06-15 03:20:00,
2013-06-14 23:21:00,63.1,59.8,30.07,SW,215,0.0,0.0,89,0.00,,,0.01,Wunderground v.1.15,2013-06-15 03:21:00,
2013-06-14 23:22:00,63.1,60.1,30.08,SW,215,0.0,0.0,90,0.00,,,0.01,Wunderground v.1.15,2013-06-15 03:22:00,
2013-06-14 23:24:00,63.1,60.1,30.08,SW,215,0.0,0.0,90,0.00,,,0.01,Wunderground v.1.15,2013-06-15 03:24:00,
2013-06-14 23:25:00,63.0,60.0,30.08,SW,215,0.0,0.0,90,0.00,,,0.01,Wunderground v.1.15,2013-06-15 03:25:00,
2013-06-14 23:26:00,63.0,59.7,30.08,SW,215,0.0,0.0,89,0.00,,,0.01,Wunderground v.1.15,2013-06-15 03:26:00,
2013-06-14 23:27:00,63.0,59.7,30.08,SW,214,0.0,0.0,89,0.00,,,0.01,Wunderground v.1.15,2013-06-15 03:27:00,
2013-06-14 23:29:00,62.9,59.6,30.08,SW,215,0.0,0.0,89,0.00,,,0.01,Wunderground v.1.15,2013-06-15 03:29:00,
2013-06-14 23:31:00,62.9,59.9,30.08,SW,215,0.0,0.0,90,0.00,,,0.01,Wunderground v.1.15,2013-06-15 03:31:00,
2013-06-14 23:32:00,62.9,59.9,30.08,SW,215,0.0,0.0,90,0.00,,,0.01,Wunderground v.1.15,2013-06-15 03:32:00,
2013-06-14 23:35:00,62.9,59.9,30.08,SW,216,0.0,0.0,90,0.00,,,0.01,Wunderground v.1.15,2013-06-15 03:35:00,
2013-06-14 23:36:00,62.9,59.9,30.08,SW,215,0.0,0.0,90,0.00,,,0.01,Wunderground v.1.15,2013-06-15 03:36:00,
2013-06-14 23:37:00,62.9,59.9,30.08,SW,215,0.0,0.0,90,0.00,,,0.01,Wunderground v.1.15,2013-06-15 03:37:00,
2013-06-14 23:40:00,62.9,59.9,30.08,SSW,200,0.0,0.0,90,0.00,,,0.01,Wunderground v.1.15,2013-06-15 03:40:00,
2013-06-14 23:41:00,62.9,59.9,30.08,SSW,200,0.0,0.0,90,0.00,,,0.01,Wunderground v.1.15,2013-06-15 03:41:00,
2013-06-14 23:42:00,62.8,59.8,30.08,SSW,200,0.0,0.0,90,0.00,,,0.01,Wunderground v.1.15,2013-06-15 03:42:00,
2013-06-14 23:45:00,62.8,59.8,30.08,SSW,200,0.0,0.0,90,0.00,,,0.01,Wunderground v.1.15,2013-06-15 03:45:00,
2013-06-14 23:46:00,62.8,59.8,30.08,SSW,200,0.0,0.0,90,0.00,,,0.01,Wunderground v.1.15,2013-06-15 03:46:00,
2013-06-14 23:47:00,62.8,59.8,30.08,SSW,200,0.0,0.0,90,0.00,,,0.01,Wunderground v.1.15,2013-06-15 03:47:00,
2013-06-14 23:48:00,62.8,59.8,30.08,SSW,200,0.0,0.0,90,0.00,,,0.01,Wunderground v.1.15,2013-06-15 03:48:00,
2013-06-14 23:50:00,62.7,59.7,30.08,SSW,200,0.0,0.0,90,0.00,,,0.01,Wunderground v.1.15,2013-06-15 03:50:00,
2013-06-14 23:51:00,62.6,59.6,30.08,SSW,200,0.0,0.0,90,0.00,,,0.01,Wunderground v.1.15,2013-06-15 03:51:00,
2013-06-14 23:53:00,62.6,59.6,30.08,SSW,200,0.0,0.0,90,0.00,,,0.01,Wunderground v.1.15,2013-06-15 03:53:00,
2013-06-14 23:56:00,62.5,59.5,30.08,SSW,200,0.0,0.0,90,0.00,,,0.01,Wunderground v.1.15,2013-06-15 03:56:00,
2013-06-14 23:58:00,62.5,59.5,30.08,SSW,200,0.0,0.0,90,0.00,,,0.01,Wunderground v.1.15,2013-06-15 03:58:00,